createdAt,value
2022-10-17T00:01:08.111Z,17.40
2022-10-17T00:03:38.456Z,17.40
2022-10-17T00:06:08.273Z,17.40
2022-10-17T00:08:38.419Z,17.40
2022-10-17T00:11:08.966Z,17.40
2022-10-17T00:13:37.246Z,17.40
2022-10-17T00:16:06.366Z,17.40
2022-10-17T00:18:34.684Z,17.40
2022-10-17T00:21:03.042Z,17.40
2022-10-17T00:23:31.335Z,17.40
2022-10-17T00:26:01.956Z,17.40
2022-10-17T00:28:30.438Z,17.40
2022-10-17T00:30:59.651Z,17.40
2022-10-17T00:33:28.487Z,17.40
2022-10-17T00:36:05.647Z,17.40
2022-10-17T00:38:34.331Z,17.40
2022-10-17T00:41:04.026Z,17.40
2022-10-17T00:43:48.092Z,17.40
2022-10-17T00:46:16.824Z,17.40
2022-10-17T00:48:47.273Z,17.40
2022-10-17T00:51:16.714Z,17.40
2022-10-17T00:53:45.200Z,17.40
2022-10-17T00:56:14.917Z,17.40
2022-10-17T00:58:45.297Z,17.40
2022-10-17T01:01:13.596Z,17.40
2022-10-17T01:03:41.823Z,17.40
2022-10-17T01:06:10.036Z,17.40
2022-10-17T01:08:38.445Z,17.40
2022-10-17T01:11:21.668Z,17.40
2022-10-17T01:13:54.317Z,17.40
2022-10-17T01:16:32.265Z,17.40
2022-10-17T01:19:09.291Z,17.40
2022-10-17T01:21:48.756Z,17.40
2022-10-17T01:24:42.489Z,17.40
2022-10-17T01:27:32.381Z,17.20
2022-10-17T01:30:27.400Z,17.40
2022-10-17T01:32:59.888Z,17.50
2022-10-17T01:35:37.764Z,17.40
2022-10-17T01:38:11.569Z,17.40
2022-10-17T01:40:46.077Z,17.40
2022-10-17T01:43:22.080Z,17.40
2022-10-17T01:45:57.509Z,17.40
2022-10-17T01:48:34.028Z,17.40
2022-10-17T01:51:06.804Z,17.40
2022-10-17T01:53:38.857Z,17.40
2022-10-17T01:56:10.607Z,17.40
2022-10-17T01:58:45.275Z,17.40
2022-10-17T02:01:14.213Z,17.40
2022-10-17T02:03:46.237Z,17.40
2022-10-17T02:06:14.347Z,17.40
2022-10-17T02:08:44.385Z,17.40
2022-10-17T02:11:16.582Z,17.30
2022-10-17T02:14:05.831Z,17.40
2022-10-17T02:16:39.999Z,17.30
2022-10-17T02:19:35.678Z,17.30
2022-10-17T02:22:17.694Z,17.30
2022-10-17T02:24:51.000Z,17.30
2022-10-17T02:27:32.946Z,17.40
2022-10-17T02:30:13.711Z,17.40
2022-10-17T02:32:50.177Z,17.30
2022-10-17T02:35:26.423Z,17.30
2022-10-17T02:37:56.261Z,17.30
2022-10-17T02:40:26.145Z,17.30
2022-10-17T02:42:55.804Z,17.30
2022-10-17T02:45:26.255Z,17.30
2022-10-17T02:48:00.363Z,17.30
2022-10-17T02:50:40.534Z,17.30
2022-10-17T02:53:13.722Z,17.30
2022-10-17T02:55:49.633Z,17.30
2022-10-17T02:58:22.315Z,17.70
2022-10-17T03:00:51.525Z,17.30
2022-10-17T03:03:22.025Z,17.30
2022-10-17T03:05:53.491Z,17.30
2022-10-17T03:08:26.205Z,17.30
2022-10-17T03:10:55.243Z,17.30
2022-10-17T03:13:24.615Z,17.30
2022-10-17T03:15:53.682Z,17.30
2022-10-17T03:18:22.764Z,17.30
2022-10-17T03:20:56.978Z,17.30
2022-10-17T03:23:25.341Z,17.30
2022-10-17T03:25:53.873Z,17.30
2022-10-17T03:28:22.080Z,17.30
2022-10-17T03:30:50.376Z,17.30
2022-10-17T03:33:18.648Z,17.30
2022-10-17T03:35:46.936Z,17.30
2022-10-17T03:38:16.608Z,17.30
2022-10-17T03:40:44.808Z,17.30
2022-10-17T03:43:13.050Z,17.30
2022-10-17T03:45:42.812Z,17.30
2022-10-17T03:48:11.075Z,17.30
2022-10-17T03:50:39.602Z,17.30
2022-10-17T03:53:07.844Z,17.30
2022-10-17T03:55:37.411Z,17.30
2022-10-17T03:58:05.623Z,17.30
2022-10-17T04:00:33.895Z,17.30
2022-10-17T04:03:02.675Z,17.30
2022-10-17T04:05:30.893Z,17.30
2022-10-17T04:08:02.392Z,17.30
2022-10-17T04:10:54.237Z,17.30
2022-10-17T04:13:22.365Z,17.30
2022-10-17T04:15:56.520Z,17.30
2022-10-17T04:18:25.085Z,17.30
2022-10-17T04:20:53.460Z,17.30
2022-10-17T04:23:22.496Z,17.30
2022-10-17T04:25:59.939Z,17.30
2022-10-17T04:28:31.058Z,17.30
2022-10-17T04:30:59.441Z,17.30
2022-10-17T04:33:33.390Z,17.30
2022-10-17T04:36:13.772Z,17.30
2022-10-17T04:38:44.208Z,17.30
2022-10-17T04:41:20.200Z,17.30
2022-10-17T04:43:51.134Z,17.30
2022-10-17T04:46:22.306Z,17.30
2022-10-17T04:48:53.193Z,17.30
2022-10-17T04:51:24.610Z,17.30
2022-10-17T04:54:12.509Z,17.30
2022-10-17T04:56:47.379Z,17.30
2022-10-17T04:59:20.096Z,17.30
2022-10-17T05:01:55.346Z,17.30
2022-10-17T05:04:25.319Z,17.30
2022-10-17T05:06:55.130Z,17.30
2022-10-17T05:09:49.848Z,17.30
2022-10-17T05:12:22.902Z,17.30
2022-10-17T05:14:52.276Z,17.30
2022-10-17T05:17:21.359Z,17.40
2022-10-17T05:19:50.120Z,17.30
2022-10-17T05:22:18.693Z,17.40
2022-10-17T05:24:47.746Z,17.30
2022-10-17T05:27:17.849Z,17.30
2022-10-17T05:29:53.097Z,17.40
2022-10-17T05:32:28.400Z,17.30
2022-10-17T05:35:05.042Z,17.30
2022-10-17T05:37:37.055Z,17.40
2022-10-17T05:40:18.888Z,17.40
2022-10-17T05:42:49.867Z,17.30
2022-10-17T05:45:29.093Z,17.30
2022-10-17T05:47:58.742Z,17.30
2022-10-17T05:50:27.858Z,17.30
2022-10-17T05:53:10.748Z,17.30
2022-10-17T05:55:44.425Z,17.30
2022-10-17T05:58:21.757Z,17.30
2022-10-17T06:01:01.243Z,17.30
2022-10-17T06:03:29.628Z,17.30
2022-10-17T06:05:58.101Z,17.30
2022-10-17T06:08:26.368Z,17.30
2022-10-17T06:10:54.747Z,17.30
2022-10-17T06:13:23.206Z,17.30
2022-10-17T06:15:53.287Z,17.30
2022-10-17T06:18:22.969Z,17.30
2022-10-17T06:20:51.507Z,17.30
2022-10-17T06:23:21.301Z,17.30
2022-10-17T06:26:01.725Z,17.10
2022-10-17T06:28:31.530Z,17.30
2022-10-17T06:30:59.931Z,17.30
2022-10-17T06:33:29.824Z,17.30
2022-10-17T06:35:58.514Z,17.30
2022-10-17T06:38:27.503Z,17.30
2022-10-17T06:41:08.163Z,17.30
2022-10-17T06:43:36.778Z,17.30
2022-10-17T06:46:29.755Z,17.40
2022-10-17T06:49:05.438Z,17.40
2022-10-17T06:51:53.741Z,17.40
2022-10-17T06:54:29.269Z,17.40
2022-10-17T06:57:09.621Z,17.40
2022-10-17T07:00:14.142Z,17.40
2022-10-17T07:02:47.540Z,17.40
2022-10-17T07:05:19.195Z,17.40
2022-10-17T07:07:50.953Z,17.40
2022-10-17T07:10:20.588Z,17.10
2022-10-17T07:12:49.337Z,17.40
2022-10-17T07:15:17.732Z,17.40
2022-10-17T07:17:50.346Z,17.40
2022-10-17T07:20:21.227Z,17.40
2022-10-17T07:22:49.674Z,17.40
2022-10-17T07:25:18.109Z,17.40
2022-10-17T07:27:52.579Z,17.50
2022-10-17T07:30:22.777Z,17.50
2022-10-17T07:33:05.076Z,17.50
2022-10-17T07:35:34.909Z,17.40
2022-10-17T07:38:03.194Z,17.50
2022-10-17T07:40:31.822Z,17.50
2022-10-17T07:43:00.025Z,17.50
2022-10-17T07:45:28.927Z,17.50
2022-10-17T07:47:58.530Z,17.50
2022-10-17T07:50:27.210Z,17.50
2022-10-17T07:52:57.960Z,17.50
2022-10-17T07:55:26.206Z,17.60
2022-10-17T07:57:54.431Z,17.50
2022-10-17T08:00:22.579Z,17.50
2022-10-17T08:02:50.965Z,17.60
2022-10-17T08:05:19.164Z,17.60
2022-10-17T08:07:47.395Z,17.60
2022-10-17T08:10:17.459Z,17.60
2022-10-17T08:12:45.761Z,17.60
2022-10-17T08:15:14.262Z,17.60
2022-10-17T08:17:42.502Z,17.60
2022-10-17T08:20:12.546Z,17.60
2022-10-17T08:22:41.010Z,17.60
2022-10-17T08:25:11.156Z,17.60
2022-10-17T08:27:40.691Z,17.60
2022-10-17T08:30:10.267Z,17.70
2022-10-17T08:32:38.556Z,17.70
2022-10-17T08:35:07.627Z,17.70
2022-10-17T08:37:36.018Z,17.70
2022-10-17T08:40:04.708Z,17.70
2022-10-17T08:42:50.304Z,17.70
2022-10-17T08:45:28.326Z,17.70
2022-10-17T08:48:00.728Z,17.70
2022-10-17T08:50:36.239Z,17.70
2022-10-17T08:53:08.378Z,17.80
2022-10-17T08:55:42.753Z,17.80
2022-10-17T08:58:19.941Z,17.80
2022-10-17T09:00:57.485Z,17.80
2022-10-17T09:03:43.094Z,17.80
2022-10-17T09:06:19.488Z,17.90
2022-10-17T09:08:58.171Z,17.90
2022-10-17T09:11:43.078Z,17.90
2022-10-17T09:14:32.323Z,17.90
2022-10-17T09:17:22.503Z,18.00
2022-10-17T09:20:10.213Z,17.90
2022-10-17T09:22:42.298Z,18.00
2022-10-17T09:25:14.520Z,18.00
2022-10-17T09:27:45.667Z,18.00
2022-10-17T09:30:50.539Z,18.00
2022-10-17T09:33:34.724Z,18.00
2022-10-17T09:36:14.157Z,18.10
2022-10-17T09:38:44.541Z,18.00
2022-10-17T09:41:43.615Z,18.10
2022-10-17T09:44:18.916Z,18.10
2022-10-17T09:47:08.551Z,18.10
2022-10-17T09:49:39.023Z,18.10
2022-10-17T09:52:11.882Z,18.10
2022-10-17T09:54:45.470Z,18.20
2022-10-17T09:57:15.814Z,18.20
2022-10-17T09:59:46.734Z,18.20
2022-10-17T10:02:22.462Z,18.10
2022-10-17T10:05:04.082Z,18.20
2022-10-17T10:07:34.469Z,18.20
2022-10-17T10:10:04.062Z,18.20
2022-10-17T10:12:34.312Z,18.20
2022-10-17T10:15:03.095Z,18.20
2022-10-17T10:17:41.835Z,18.20
2022-10-17T10:20:33.153Z,18.20
2022-10-17T10:23:24.358Z,18.20
2022-10-17T10:25:57.865Z,18.20
2022-10-17T10:28:29.679Z,18.30
2022-10-17T10:30:59.863Z,18.30
2022-10-17T10:33:31.713Z,18.30
2022-10-17T10:36:03.394Z,18.30
2022-10-17T10:38:34.191Z,18.30
2022-10-17T10:41:07.388Z,18.30
2022-10-17T10:43:38.769Z,18.30
2022-10-17T10:46:18.583Z,18.40
2022-10-17T10:48:58.467Z,18.30
2022-10-17T10:51:32.537Z,18.40
2022-10-17T10:54:04.186Z,18.40
2022-10-17T10:56:36.732Z,18.40
2022-10-17T10:59:11.626Z,18.40
2022-10-17T11:01:47.953Z,18.40
2022-10-17T11:04:27.042Z,18.40
2022-10-17T11:07:02.116Z,18.40
2022-10-17T11:09:41.340Z,18.40
2022-10-17T11:12:18.265Z,18.40
2022-10-17T11:14:50.930Z,18.40
2022-10-17T11:17:30.511Z,18.40
2022-10-17T11:20:12.345Z,18.40
2022-10-17T11:22:45.392Z,18.50
2022-10-17T11:25:28.889Z,18.50
2022-10-17T11:27:59.808Z,18.40
2022-10-17T11:33:21.251Z,18.50
2022-10-17T11:35:54.275Z,18.40
2022-10-17T11:38:30.725Z,18.50
2022-10-17T11:41:01.000Z,18.50
2022-10-17T11:43:33.389Z,18.50
2022-10-17T11:46:19.889Z,18.50
2022-10-17T11:49:05.906Z,18.50
2022-10-17T11:52:00.779Z,18.50
2022-10-17T11:54:34.615Z,18.50
2022-10-17T11:57:15.820Z,18.60
2022-10-17T12:00:07.319Z,18.60
2022-10-17T12:02:43.130Z,18.60
2022-10-17T12:05:23.030Z,18.60
2022-10-17T12:07:57.412Z,18.60
2022-10-17T12:10:46.174Z,18.60
2022-10-17T12:13:57.412Z,18.60
2022-10-17T12:16:46.549Z,18.60
2022-10-17T12:19:28.862Z,18.60
2022-10-17T12:21:59.244Z,18.60
2022-10-17T12:24:44.474Z,18.60
2022-10-17T12:27:42.331Z,18.60
2022-10-17T12:30:28.153Z,18.60
2022-10-17T12:33:07.719Z,18.60
2022-10-17T12:35:38.290Z,18.60
2022-10-17T12:38:28.896Z,18.60
2022-10-17T12:41:00.300Z,18.60
2022-10-17T12:43:58.824Z,18.60
2022-10-17T12:46:58.262Z,18.60
2022-10-17T12:49:43.804Z,18.60
2022-10-17T12:52:48.640Z,18.80
2022-10-17T12:55:19.355Z,18.60
2022-10-17T12:57:56.790Z,18.60
2022-10-17T13:00:32.450Z,18.60
2022-10-17T13:03:14.090Z,18.70
2022-10-17T13:05:46.835Z,18.60
2022-10-17T13:08:21.093Z,18.60
2022-10-17T13:10:52.601Z,18.70
2022-10-17T13:13:25.446Z,18.70
2022-10-17T13:15:55.734Z,18.70
2022-10-17T13:18:25.451Z,18.70
2022-10-17T13:20:59.434Z,18.70
2022-10-17T13:23:31.630Z,18.70
2022-10-17T13:26:13.673Z,18.70
2022-10-17T13:28:43.433Z,18.70
2022-10-17T13:31:29.823Z,18.70
2022-10-17T13:33:59.525Z,18.70
2022-10-17T13:36:29.477Z,18.70
2022-10-17T13:38:59.842Z,18.80
2022-10-17T13:41:37.400Z,18.70
2022-10-17T13:44:16.080Z,18.80
2022-10-17T13:46:44.930Z,18.70
2022-10-17T13:49:22.286Z,18.70
2022-10-17T13:51:55.142Z,18.80
2022-10-17T13:54:36.629Z,18.80
2022-10-17T13:57:06.289Z,18.80
2022-10-17T13:59:40.130Z,18.80
2022-10-17T14:02:15.901Z,18.80
2022-10-17T14:05:14.999Z,18.80
2022-10-17T14:08:05.813Z,18.80
2022-10-17T14:10:31.168Z,18.80
2022-10-17T14:13:00.187Z,18.80
2022-10-17T14:15:32.142Z,18.80
2022-10-17T14:18:06.730Z,18.80
2022-10-17T14:23:32.423Z,18.90
2022-10-17T14:26:13.040Z,18.90
2022-10-17T14:28:43.309Z,18.80
2022-10-17T14:31:27.530Z,18.90
2022-10-17T14:33:55.900Z,18.80
2022-10-17T14:36:38.579Z,18.90
2022-10-17T14:39:12.033Z,18.80
2022-10-17T14:41:46.553Z,18.90
2022-10-17T14:44:22.934Z,18.80
2022-10-17T14:46:59.254Z,18.90
2022-10-17T14:49:34.104Z,18.90
2022-10-17T14:52:30.363Z,18.90
2022-10-17T14:55:00.831Z,18.90
2022-10-17T14:57:43.758Z,18.90
2022-10-17T15:00:16.112Z,18.90
2022-10-17T15:02:46.983Z,18.90
2022-10-17T15:05:16.183Z,18.90
2022-10-17T15:07:44.730Z,18.90
2022-10-17T15:10:31.731Z,18.90
2022-10-17T15:13:26.262Z,18.90
2022-10-17T15:15:52.388Z,18.90
2022-10-17T15:18:22.350Z,18.90
2022-10-17T15:20:59.477Z,18.90
2022-10-17T15:23:33.626Z,18.90
2022-10-17T15:26:02.333Z,18.80
2022-10-17T15:28:30.547Z,18.80
2022-10-17T15:30:58.769Z,18.90
2022-10-17T15:33:28.303Z,18.80
2022-10-17T15:35:59.356Z,18.80
2022-10-17T15:38:28.105Z,18.80
2022-10-17T15:40:56.697Z,18.80
2022-10-17T15:43:24.991Z,18.90
2022-10-17T15:45:53.772Z,18.80
2022-10-17T15:48:28.559Z,18.80
2022-10-17T15:50:58.516Z,18.80
2022-10-17T15:53:27.080Z,18.80
2022-10-17T15:55:55.323Z,18.80
2022-10-17T15:58:23.640Z,18.80
2022-10-17T16:00:52.046Z,18.80
2022-10-17T16:05:53.916Z,18.80
2022-10-17T16:08:23.655Z,18.80
2022-10-17T16:10:52.470Z,18.80
2022-10-17T16:13:23.370Z,18.70
2022-10-17T16:15:51.684Z,18.70
2022-10-17T16:18:21.111Z,18.70
2022-10-17T16:20:49.916Z,18.70
2022-10-17T16:23:18.230Z,18.60
2022-10-17T16:25:47.753Z,18.70
2022-10-17T16:28:15.943Z,18.60
2022-10-17T16:30:46.162Z,18.60
2022-10-17T16:33:14.387Z,18.60
2022-10-17T16:35:42.886Z,18.60
2022-10-17T16:38:10.988Z,18.60
2022-10-17T16:40:40.195Z,18.60
2022-10-17T16:43:12.975Z,18.60
2022-10-17T16:45:42.076Z,18.60
2022-10-17T16:48:12.187Z,18.60
2022-10-17T16:50:41.320Z,18.60
2022-10-17T16:53:09.590Z,18.60
2022-10-17T16:55:37.802Z,18.60
2022-10-17T16:58:06.076Z,18.60
2022-10-17T17:00:35.673Z,18.60
2022-10-17T17:03:04.144Z,18.60
2022-10-17T17:05:32.292Z,18.60
2022-10-17T17:08:01.000Z,18.60
2022-10-17T17:10:29.576Z,18.60
2022-10-17T17:12:57.996Z,18.50
2022-10-17T17:15:26.451Z,18.60
2022-10-17T17:17:56.684Z,18.60
2022-10-17T17:20:25.578Z,18.60
2022-10-17T17:22:54.453Z,18.60
2022-10-17T17:25:23.661Z,18.60
2022-10-17T17:27:52.012Z,18.60
2022-10-17T17:30:20.268Z,18.50
2022-10-17T17:32:48.577Z,18.50
2022-10-17T17:35:18.517Z,18.50
2022-10-17T17:37:46.719Z,18.50
2022-10-17T17:40:15.172Z,18.60
2022-10-17T17:42:43.734Z,18.50
2022-10-17T17:45:12.530Z,18.50
2022-10-17T17:47:40.723Z,18.50
2022-10-17T17:50:09.513Z,18.50
2022-10-17T17:52:41.891Z,18.50
2022-10-17T17:55:10.747Z,18.50
2022-10-17T17:57:39.247Z,18.50
2022-10-17T18:00:09.102Z,18.50
2022-10-17T18:02:39.606Z,18.50
2022-10-17T18:05:10.487Z,18.50
2022-10-17T18:07:40.107Z,18.50
2022-10-17T18:12:38.013Z,18.50
2022-10-17T18:15:07.227Z,18.50
2022-10-17T18:17:35.745Z,18.40
2022-10-17T18:20:04.083Z,18.40
2022-10-17T18:22:32.581Z,18.40
2022-10-17T18:25:02.327Z,18.40
2022-10-17T18:27:30.660Z,18.40
2022-10-17T18:29:58.970Z,18.40
2022-10-17T18:32:27.310Z,18.40
2022-10-17T18:34:55.590Z,18.40
2022-10-17T18:37:23.754Z,18.40
2022-10-17T18:39:54.052Z,18.40
2022-10-17T18:42:23.614Z,18.40
2022-10-17T18:44:51.739Z,18.40
2022-10-17T18:47:19.885Z,18.40
2022-10-17T18:49:48.605Z,18.40
2022-10-17T18:52:16.887Z,18.40
2022-10-17T18:54:45.068Z,18.40
2022-10-17T18:57:13.212Z,18.40
2022-10-17T18:59:42.761Z,18.40
2022-10-17T19:02:13.471Z,18.40
2022-10-17T19:04:41.647Z,18.40
2022-10-17T19:07:11.011Z,18.40
2022-10-17T19:09:39.245Z,18.40
2022-10-17T19:12:07.366Z,18.30
2022-10-17T19:14:35.694Z,18.30
2022-10-17T19:17:05.454Z,18.30
2022-10-17T19:19:33.820Z,18.30
2022-10-17T19:22:03.450Z,18.40
2022-10-17T19:24:31.972Z,18.40
2022-10-17T19:27:02.685Z,18.40
2022-10-17T19:29:32.989Z,18.40
2022-10-17T19:32:02.665Z,18.40
2022-10-17T19:34:32.379Z,18.40
2022-10-17T19:37:01.019Z,18.30
2022-10-17T19:39:30.561Z,18.30
2022-10-17T19:42:05.843Z,18.30
2022-10-17T19:44:35.910Z,18.40
2022-10-17T19:47:04.586Z,18.30
2022-10-17T19:49:36.035Z,18.30
2022-10-17T19:52:04.943Z,18.30
2022-10-17T19:54:36.680Z,18.30
2022-10-17T19:57:10.511Z,18.30
2022-10-17T19:59:39.571Z,18.30
2022-10-17T20:02:08.099Z,18.30
2022-10-17T20:04:49.488Z,18.30
2022-10-17T20:07:28.812Z,18.30
2022-10-17T20:09:57.653Z,18.30
2022-10-17T20:12:27.413Z,18.30
2022-10-17T20:14:56.167Z,18.30
2022-10-17T20:17:24.941Z,18.30
2022-10-17T20:19:55.605Z,18.30
2022-10-17T20:22:27.099Z,18.30
2022-10-17T20:24:55.586Z,18.30
2022-10-17T20:27:27.566Z,18.20
2022-10-17T20:30:01.781Z,18.20
2022-10-17T20:32:32.254Z,18.20
2022-10-17T20:35:02.414Z,18.20
2022-10-17T20:37:30.854Z,18.20
2022-10-17T20:40:22.802Z,18.20
2022-10-17T20:42:47.500Z,18.20
2022-10-17T20:45:15.670Z,18.20
2022-10-17T20:47:48.118Z,18.20
2022-10-17T20:50:20.157Z,18.20
2022-10-17T20:52:48.296Z,18.20
2022-10-17T20:55:16.706Z,18.20
2022-10-17T20:57:44.839Z,18.10
2022-10-17T21:00:14.110Z,18.20
2022-10-17T21:02:42.272Z,18.20
2022-10-17T21:05:10.712Z,18.20
2022-10-17T21:07:40.271Z,18.20
2022-10-17T21:10:30.607Z,18.20
2022-10-17T21:13:23.238Z,18.10
2022-10-17T21:15:51.588Z,18.10
2022-10-17T21:18:19.821Z,18.10
2022-10-17T21:20:48.115Z,18.10
2022-10-17T21:23:17.677Z,18.10
2022-10-17T21:25:45.861Z,18.10
2022-10-17T21:28:14.096Z,18.10
2022-10-17T21:30:42.284Z,18.10
2022-10-17T21:33:10.356Z,18.10
2022-10-17T21:35:38.509Z,18.10
2022-10-17T21:38:06.722Z,18.00
2022-10-17T21:40:36.361Z,18.10
2022-10-17T21:43:05.594Z,18.00
2022-10-17T21:45:36.989Z,18.10
2022-10-17T21:48:13.330Z,18.10
2022-10-17T21:50:42.221Z,18.10
2022-10-17T21:53:10.584Z,18.10
2022-10-17T21:55:40.124Z,18.00
2022-10-17T21:58:08.447Z,18.00
2022-10-17T22:00:36.573Z,18.00
2022-10-17T22:03:05.905Z,18.00
2022-10-17T22:05:34.381Z,18.00
2022-10-17T22:08:02.917Z,18.10
2022-10-17T22:10:31.457Z,18.00
2022-10-17T22:13:00.918Z,18.00
2022-10-17T22:15:29.164Z,18.00
2022-10-17T22:17:57.447Z,18.00
2022-10-17T22:20:25.610Z,18.00
2022-10-17T22:22:53.898Z,18.00
2022-10-17T22:25:22.100Z,18.00
2022-10-17T22:27:50.264Z,18.00
2022-10-17T22:30:19.837Z,18.00
2022-10-17T22:32:48.045Z,18.00
2022-10-17T22:35:16.577Z,18.00
2022-10-17T22:37:44.680Z,18.00
2022-10-17T22:40:13.425Z,18.00
2022-10-17T22:42:41.842Z,18.00
2022-10-17T22:45:10.793Z,18.00
2022-10-17T22:47:40.337Z,18.00
2022-10-17T22:50:09.144Z,18.00
2022-10-17T22:52:37.424Z,18.00
2022-10-17T22:55:06.209Z,18.00
2022-10-17T22:57:34.513Z,18.00
2022-10-17T23:00:02.899Z,18.00
2022-10-17T23:02:32.204Z,18.00
2022-10-17T23:05:01.932Z,18.00
2022-10-17T23:07:30.172Z,18.00
2022-10-17T23:09:58.403Z,18.00
2022-10-17T23:12:26.738Z,18.00
2022-10-17T23:14:54.851Z,18.00
2022-10-17T23:17:23.202Z,18.00
2022-10-17T23:19:53.026Z,18.00
2022-10-17T23:22:25.134Z,17.90
2022-10-17T23:24:53.493Z,18.00
2022-10-17T23:27:21.673Z,18.00
2022-10-17T23:29:49.838Z,18.00
2022-10-17T23:32:20.532Z,18.00
2022-10-17T23:34:48.629Z,18.00
2022-10-17T23:37:16.842Z,17.90
2022-10-17T23:39:46.365Z,18.00
2022-10-17T23:42:14.520Z,18.00
2022-10-17T23:44:42.699Z,18.00
2022-10-17T23:47:10.898Z,17.90
2022-10-17T23:49:39.461Z,18.00
2022-10-17T23:52:07.602Z,18.00
2022-10-17T23:54:36.019Z,18.00
2022-10-17T23:57:05.787Z,18.00
2022-10-17T23:59:33.909Z,18.00
